< < Back
Terminal Aerodrome Forecast


Current Version              Previous Versions:   1  2  3  4  5  6  7  8  9  

Terminal Aerodrome Forecast

759
FTUS42 KGSP 012200 AAC
TAFAVL
TAF AMD
KAVL 012209Z 0122/0218 19005KT P6SM VCSH SCT050 BKN200
     FM020000 00000KT P6SM SCT060
     FM020900 00000KT 2SM BR BKN004
     FM021200 00000KT 1SM BR BKN003
     FM021400 31004KT 5SM BR SCT110
     FM021500 32004KT P6SM FEW045=



Latest METAR

664
SAUS70 KWBC 010700 RRX
MTRAVL
METAR KAVL 020654Z AUTO 34004KT 10SM CLR 20/19 A3017 RMK AO2 SLP184
T02000189


USA.gov is the U.S. government's official web portal to all federal, state and local government web resources and services.